CheckWX is a tool to help pilots better visualize weather data.  It is not intended as a substitute for an official pre-flight weather briefing.

12:13:33 UTC

PAMD METAR
Middleton Island Airport
Middleton Island, Alaska, USA
Current

23 mins ago

PAMD 241151Z AUTO 03006KT 10SM OVC038 M02/M07 A3023 RMK AO2 SLP224 60000 70016 T10171067 11006 21017 51028 FZRANO
Observed
Feb-24 @ 11:51 UTC
Wind
  • 030° at 6 KTS
Visibility
10 SM
Flight Rules
VFR
Cloud Levels
  • Overcast at 3,800' AGL
Temperature
-2°C / 28°F
Dewpoint
-7°C / 19°F
Humidity
69%
Altimeter
30.23" Hg
Pressure
1023.72 hPa
24 Hour Rain
0.16"
Previous

1 hour ago

PAMD 241051Z AUTO 03009KT 10SM OVC046 M02/M07 A3020 RMK AO2 SNE00 SLP216 P0000 T10171067 FZRANO
Observed
Feb-24 @ 10:51 UTC
Wind
  • 030° at 9 KTS
Visibility
10 SM
Flight Rules
VFR
Cloud Levels
  • Overcast at 4,600' AGL
Temperature
-2°C / 28°F
Dewpoint
-7°C / 19°F
Humidity
69%
Altimeter
30.2" Hg
Pressure
1022.72 hPa
Current Rain
0.01"
Previous

2 hours ago

PAMD 240951Z AUTO 04007KT 9SM -SN BKN033 M01/M06 A3018 RMK AO2 SNB43 SLP206 P0000 T10111061 FZRANO
Observed
Feb-24 @ 09:51 UTC
Wind
  • 040° at 7 KTS
Visibility
9 SM
Flight Rules
VFR
Conditions
Light Snow
Cloud Levels
  • Broken at 3,300' AGL
Temperature
-1°C / 30°F
Dewpoint
-6°C / 21°F
Humidity
69%
Altimeter
30.18" Hg
Pressure
1022.02 hPa
Current Rain
0.01"